createdAt,value
2018-09-27T00:00:03.347Z,66.37
2018-09-27T00:02:31.929Z,65.75
2018-09-27T00:05:00.669Z,65.02
2018-09-27T00:07:30.394Z,64.84
2018-09-27T00:09:59.982Z,63.96
2018-09-27T00:12:28.547Z,63.39
2018-09-27T00:14:57.392Z,63.19
2018-09-27T00:17:26.124Z,63.31
2018-09-27T00:19:54.898Z,62.25
2018-09-27T00:22:23.475Z,62.41
2018-09-27T00:24:52.109Z,61.64
2018-09-27T00:27:21.029Z,61.54
2018-09-27T00:29:50.565Z,61.26
2018-09-27T00:32:19.145Z,60.62
2018-09-27T00:34:48.784Z,60.05
2018-09-27T00:37:17.538Z,59.38
2018-09-27T00:39:46.046Z,59.09
2018-09-27T00:42:15.128Z,58.46
2018-09-27T00:44:43.934Z,58.15
2018-09-27T00:47:12.542Z,57.78
2018-09-27T00:49:42.744Z,58.08
2018-09-27T00:52:11.307Z,57.15
2018-09-27T00:54:39.947Z,57.25
2018-09-27T00:57:08.532Z,57.70
2018-09-27T00:59:37.278Z,57.83
2018-09-27T01:02:07.237Z,57.53
2018-09-27T01:04:35.922Z,57.91
2018-09-27T01:07:06.194Z,58.19
2018-09-27T01:09:34.916Z,58.42
2018-09-27T01:12:03.618Z,58.45
2018-09-27T01:14:32.406Z,58.63
2018-09-27T01:17:01.107Z,58.92
2018-09-27T01:19:31.402Z,58.49
2018-09-27T01:22:00.718Z,58.77
2018-09-27T01:24:30.387Z,58.37
2018-09-27T01:26:59.058Z,58.03
2018-09-27T01:29:27.702Z,57.80
2018-09-27T01:31:56.205Z,58.01
2018-09-27T01:34:24.988Z,57.81
2018-09-27T01:36:53.536Z,55.96
2018-09-27T01:39:22.137Z,55.82
2018-09-27T01:41:51.120Z,56.18
2018-09-27T01:44:20.357Z,55.56
2018-09-27T01:46:48.903Z,54.76
2018-09-27T01:49:17.524Z,54.65
2018-09-27T01:51:46.656Z,54.51
2018-09-27T01:54:15.128Z,54.46
2018-09-27T01:56:43.663Z,54.30
2018-09-27T01:59:12.702Z,54.18
2018-09-27T02:01:41.220Z,54.54
2018-09-27T02:04:09.720Z,54.63
2018-09-27T02:06:38.364Z,53.87
2018-09-27T02:09:09.121Z,53.96
2018-09-27T02:11:37.973Z,53.83
2018-09-27T02:14:06.720Z,54.06
2018-09-27T02:16:35.450Z,53.85
2018-09-27T02:19:04.074Z,54.06
2018-09-27T02:21:32.636Z,53.96
2018-09-27T02:24:01.214Z,54.66
2018-09-27T02:26:29.733Z,54.32
2018-09-27T02:28:58.252Z,54.60
2018-09-27T02:31:26.812Z,54.67
2018-09-27T02:33:55.315Z,54.67
2018-09-27T02:36:24.036Z,54.84
2018-09-27T02:38:53.637Z,55.08
2018-09-27T02:41:22.528Z,55.05
2018-09-27T02:43:51.045Z,55.22
2018-09-27T02:46:19.581Z,55.04
2018-09-27T02:48:48.257Z,54.94
2018-09-27T02:51:16.818Z,54.90
2018-09-27T02:53:45.391Z,54.62
2018-09-27T02:56:14.314Z,54.62
2018-09-27T02:58:43.365Z,54.68
2018-09-27T03:01:12.000Z,54.82
2018-09-27T03:03:40.642Z,54.59
2018-09-27T03:06:09.296Z,54.93
2018-09-27T03:08:37.892Z,54.90
2018-09-27T03:11:06.728Z,54.69
2018-09-27T03:13:35.602Z,54.87
2018-09-27T03:16:04.296Z,54.86
2018-09-27T03:18:33.073Z,54.77
2018-09-27T03:21:01.711Z,55.21
2018-09-27T03:23:30.369Z,55.36
2018-09-27T03:25:58.976Z,54.84
2018-09-27T03:28:27.616Z,55.43
2018-09-27T03:30:56.226Z,54.98
2018-09-27T03:33:24.815Z,55.14
2018-09-27T03:35:53.637Z,54.99
2018-09-27T03:38:22.320Z,54.97
2018-09-27T03:40:54.440Z,55.14
2018-09-27T03:43:22.970Z,55.25
2018-09-27T03:45:51.622Z,54.96
2018-09-27T03:48:21.158Z,55.65
2018-09-27T03:50:49.746Z,55.51
2018-09-27T03:53:18.308Z,55.40
2018-09-27T03:55:46.902Z,55.35
2018-09-27T03:58:16.665Z,55.90
2018-09-27T04:00:45.200Z,55.25
2018-09-27T04:03:13.771Z,55.46
2018-09-27T04:05:42.469Z,56.34
2018-09-27T04:08:11.034Z,55.72
2018-09-27T04:10:40.388Z,56.05
2018-09-27T04:13:08.853Z,55.88
2018-09-27T04:15:37.504Z,55.69
2018-09-27T04:18:06.243Z,55.73
2018-09-27T04:20:41.804Z,56.29
2018-09-27T04:23:10.298Z,56.06
2018-09-27T04:25:40.013Z,56.22
2018-09-27T04:28:08.707Z,56.39
2018-09-27T04:30:37.373Z,56.36
2018-09-27T04:33:06.133Z,56.86
2018-09-27T04:35:34.723Z,56.37
2018-09-27T04:38:03.569Z,56.74
2018-09-27T04:40:32.259Z,56.64
2018-09-27T04:43:00.862Z,56.72
2018-09-27T04:45:29.716Z,57.08
2018-09-27T04:47:58.356Z,56.80
2018-09-27T04:50:27.052Z,57.00
2018-09-27T04:52:55.782Z,57.15
2018-09-27T04:55:28.309Z,57.43
2018-09-27T04:57:56.978Z,57.08
2018-09-27T05:00:25.851Z,57.05
2018-09-27T05:02:55.789Z,57.43
2018-09-27T05:05:29.139Z,57.48
2018-09-27T05:07:58.720Z,57.53
2018-09-27T05:10:27.420Z,57.63
2018-09-27T05:12:56.190Z,57.66
2018-09-27T05:15:24.892Z,57.63
2018-09-27T05:17:53.386Z,58.61
2018-09-27T05:20:22.231Z,58.79
2018-09-27T05:22:50.816Z,58.68
2018-09-27T05:25:19.454Z,58.73
2018-09-27T05:27:48.796Z,58.38
2018-09-27T05:30:17.321Z,58.52
2018-09-27T05:32:45.980Z,58.66
2018-09-27T05:35:14.594Z,58.38
2018-09-27T05:37:43.272Z,58.07
2018-09-27T05:40:12.582Z,58.49
2018-09-27T05:42:41.072Z,58.92
2018-09-27T05:45:09.588Z,58.57
2018-09-27T05:47:38.356Z,59.04
2018-09-27T05:50:07.701Z,59.28
2018-09-27T05:52:37.638Z,59.37
2018-09-27T05:55:06.695Z,59.14
2018-09-27T05:57:35.455Z,59.52
2018-09-27T06:00:04.247Z,59.23
2018-09-27T06:02:33.240Z,59.61
2018-09-27T06:05:01.954Z,59.87
2018-09-27T06:07:32.163Z,60.01
2018-09-27T06:10:01.524Z,60.29
2018-09-27T06:12:30.337Z,60.10
2018-09-27T06:14:58.887Z,60.77
2018-09-27T06:17:27.456Z,61.08
2018-09-27T06:19:56.194Z,60.95
2018-09-27T06:22:24.625Z,61.15
2018-09-27T06:24:53.308Z,61.56
2018-09-27T06:27:22.014Z,61.26
2018-09-27T06:29:50.612Z,61.85
2018-09-27T06:32:19.193Z,61.87
2018-09-27T06:34:48.555Z,62.46
2018-09-27T06:37:17.132Z,61.97
2018-09-27T06:39:45.717Z,61.58
2018-09-27T06:42:14.383Z,61.84
2018-09-27T06:44:43.057Z,62.30
2018-09-27T06:47:11.792Z,62.13
2018-09-27T06:49:41.150Z,62.21
2018-09-27T06:52:09.731Z,62.71
2018-09-27T06:54:38.247Z,62.34
2018-09-27T06:57:07.065Z,62.36
2018-09-27T06:59:35.724Z,62.64
2018-09-27T07:02:04.483Z,62.10
2018-09-27T07:04:33.331Z,61.90
2018-09-27T07:07:01.890Z,61.91
2018-09-27T07:09:30.484Z,61.98
2018-09-27T07:11:59.037Z,62.32
2018-09-27T07:14:27.716Z,62.91
2018-09-27T07:16:56.233Z,63.11
2018-09-27T07:19:25.209Z,63.23
2018-09-27T07:21:53.677Z,63.21
2018-09-27T07:24:22.296Z,62.90
2018-09-27T07:26:51.232Z,63.30
2018-09-27T07:29:19.848Z,63.80
2018-09-27T07:31:50.279Z,64.13
2018-09-27T07:34:18.904Z,64.11
2018-09-27T07:36:47.628Z,64.47
2018-09-27T07:39:16.460Z,64.37
2018-09-27T07:41:44.997Z,64.76
2018-09-27T07:44:13.691Z,64.97
2018-09-27T07:46:42.299Z,64.77
2018-09-27T07:49:12.447Z,65.03
2018-09-27T07:51:41.187Z,64.56
2018-09-27T07:54:09.880Z,64.70
2018-09-27T07:56:38.485Z,64.96
2018-09-27T07:59:06.954Z,64.69
2018-09-27T08:01:35.675Z,64.84
2018-09-27T08:04:04.312Z,65.24
2018-09-27T08:06:33.008Z,64.64
2018-09-27T08:09:01.640Z,64.62
2018-09-27T08:11:30.202Z,64.68
2018-09-27T08:13:58.612Z,64.26
2018-09-27T08:16:27.207Z,64.81
2018-09-27T08:18:55.755Z,64.54
2018-09-27T08:21:24.428Z,65.60
2018-09-27T08:23:52.987Z,66.02
2018-09-27T08:26:21.501Z,64.96
2018-09-27T08:28:49.993Z,65.91
2018-09-27T08:31:18.615Z,65.54
2018-09-27T08:33:47.157Z,66.41
2018-09-27T08:36:15.658Z,66.46
2018-09-27T08:38:44.474Z,66.55
2018-09-27T08:41:13.147Z,65.29
2018-09-27T08:43:42.787Z,66.40
2018-09-27T08:46:11.570Z,65.66
2018-09-27T08:48:40.143Z,65.46
2018-09-27T08:51:08.847Z,66.37
2018-09-27T08:53:37.469Z,67.27
2018-09-27T08:56:07.204Z,67.26
2018-09-27T08:58:35.832Z,67.51
2018-09-27T09:01:04.537Z,66.20
2018-09-27T09:03:33.606Z,67.41
2018-09-27T09:06:02.205Z,66.56
2018-09-27T09:08:30.819Z,65.90
2018-09-27T09:10:59.459Z,66.70
2018-09-27T09:13:27.980Z,66.63
2018-09-27T09:15:56.696Z,67.44
2018-09-27T09:18:25.273Z,67.97
2018-09-27T09:20:53.850Z,67.51
2018-09-27T09:23:22.580Z,68.17
2018-09-27T09:25:52.272Z,68.14
2018-09-27T09:28:20.876Z,68.55
2018-09-27T09:30:49.657Z,68.75
2018-09-27T09:33:24.881Z,68.14
2018-09-27T09:35:53.494Z,68.15
2018-09-27T09:38:21.988Z,68.69
2018-09-27T09:40:50.764Z,67.68
2018-09-27T09:43:19.347Z,67.34
2018-09-27T09:45:47.901Z,67.21
2018-09-27T09:48:17.634Z,67.75
2018-09-27T09:50:46.234Z,67.46
2018-09-27T09:53:15.984Z,67.46
2018-09-27T09:55:44.555Z,68.20
2018-09-27T09:58:13.278Z,68.20
2018-09-27T10:00:41.884Z,69.15
2018-09-27T10:03:10.453Z,69.48
2018-09-27T10:05:39.211Z,69.50
2018-09-27T10:08:07.927Z,69.04
2018-09-27T10:10:36.565Z,68.91
2018-09-27T10:13:05.835Z,68.72
2018-09-27T10:15:34.484Z,68.73
2018-09-27T10:18:03.263Z,70.10
2018-09-27T10:20:31.836Z,69.15
2018-09-27T10:23:01.376Z,70.02
2018-09-27T10:25:30.016Z,70.39
2018-09-27T10:27:58.740Z,70.29
2018-09-27T10:30:28.415Z,69.40
2018-09-27T10:32:57.218Z,69.37
2018-09-27T10:35:25.962Z,68.92
2018-09-27T10:37:54.515Z,69.64
2018-09-27T10:40:24.119Z,70.17
2018-09-27T10:42:52.865Z,68.08
2018-09-27T10:45:21.747Z,68.48
2018-09-27T10:47:51.384Z,68.16
2018-09-27T10:50:20.306Z,67.91
2018-09-27T10:52:48.888Z,67.10
2018-09-27T10:55:17.544Z,68.32
2018-09-27T10:57:46.181Z,68.08
2018-09-27T11:00:21.864Z,68.82
2018-09-27T11:02:50.960Z,67.77
2018-09-27T11:09:32.628Z,66.78
2018-09-27T11:12:01.309Z,66.25
2018-09-27T11:14:30.208Z,65.66
2018-09-27T11:16:59.544Z,66.34
2018-09-27T11:19:28.058Z,65.96
2018-09-27T11:21:56.745Z,66.05
2018-09-27T11:24:25.303Z,65.78
2018-09-27T11:26:54.024Z,66.21
2018-09-27T11:29:28.068Z,65.71
2018-09-27T11:32:02.043Z,67.24
2018-09-27T11:34:30.651Z,66.70
2018-09-27T11:36:59.201Z,67.21
2018-09-27T11:39:27.807Z,67.08
2018-09-27T11:41:56.584Z,67.93
2018-09-27T11:44:25.432Z,66.59
2018-09-27T11:46:54.017Z,67.09
2018-09-27T11:49:24.213Z,67.98
2018-09-27T11:51:52.801Z,67.08
2018-09-27T11:54:21.456Z,66.99
2018-09-27T11:56:50.210Z,67.60
2018-09-27T11:59:18.801Z,67.59
2018-09-27T12:01:47.444Z,67.53
2018-09-27T12:04:16.187Z,67.15
2018-09-27T12:06:44.901Z,67.37
2018-09-27T12:09:13.914Z,67.07
2018-09-27T12:11:42.620Z,67.91
2018-09-27T12:14:11.721Z,67.41
2018-09-27T12:16:40.324Z,67.20
2018-09-27T12:19:09.064Z,66.89
2018-09-27T12:21:37.648Z,66.73
2018-09-27T12:24:06.195Z,67.10
2018-09-27T12:26:35.339Z,67.49
2018-09-27T12:29:03.876Z,66.14
2018-09-27T12:31:32.812Z,66.79
2018-09-27T12:34:01.657Z,65.85
2018-09-27T12:36:30.248Z,66.65
2018-09-27T12:38:58.801Z,66.94
2018-09-27T12:41:27.455Z,67.87
2018-09-27T12:43:56.240Z,66.18
2018-09-27T12:46:25.364Z,65.72
2018-09-27T12:48:54.159Z,65.68
2018-09-27T12:51:22.817Z,66.03
2018-09-27T12:53:51.641Z,65.25
2018-09-27T12:56:20.438Z,65.29
2018-09-27T12:58:49.017Z,64.98
2018-09-27T13:01:17.497Z,65.40
2018-09-27T13:03:46.178Z,66.47
2018-09-27T13:06:14.747Z,64.93
2018-09-27T13:08:43.337Z,64.27
2018-09-27T13:11:12.168Z,64.32
2018-09-27T13:13:40.698Z,62.79
2018-09-27T13:16:09.524Z,61.87
2018-09-27T13:18:38.240Z,62.97
2018-09-27T13:21:06.793Z,62.46
2018-09-27T13:23:35.346Z,61.85
2018-09-27T13:26:04.212Z,60.56
2018-09-27T13:28:32.717Z,60.80
2018-09-27T13:31:01.430Z,61.30
2018-09-27T13:33:30.703Z,58.78
2018-09-27T13:35:59.223Z,58.58
2018-09-27T13:38:28.970Z,59.82
2018-09-27T13:40:58.280Z,59.20
2018-09-27T13:43:27.648Z,60.01
2018-09-27T13:45:58.327Z,60.01
2018-09-27T13:48:28.074Z,59.37
2018-09-27T13:50:57.752Z,60.27
2018-09-27T13:53:27.234Z,59.50
2018-09-27T13:55:56.929Z,60.28
2018-09-27T13:58:26.277Z,61.13
2018-09-27T14:00:55.668Z,59.09
2018-09-27T14:03:24.614Z,58.87
2018-09-27T14:05:53.464Z,58.40
2018-09-27T14:08:22.139Z,57.22
2018-09-27T14:10:51.095Z,58.73
2018-09-27T14:13:19.778Z,58.02
2018-09-27T14:15:49.159Z,58.99
2018-09-27T14:18:17.793Z,60.38
2018-09-27T14:20:46.594Z,60.51
2018-09-27T14:23:16.031Z,60.08
2018-09-27T14:25:45.023Z,60.76
2018-09-27T14:28:14.389Z,60.29
2018-09-27T14:30:43.009Z,60.94
2018-09-27T14:33:11.644Z,60.98
2018-09-27T14:35:40.225Z,61.30
2018-09-27T14:38:08.685Z,61.91
2018-09-27T14:40:37.482Z,61.72
2018-09-27T14:43:06.429Z,62.45
2018-09-27T14:45:35.025Z,62.61
2018-09-27T14:48:03.878Z,62.28
2018-09-27T14:50:32.414Z,63.08
2018-09-27T14:53:01.096Z,62.77
2018-09-27T14:55:29.861Z,62.61
2018-09-27T14:57:58.628Z,63.23
2018-09-27T15:00:27.101Z,63.57
2018-09-27T15:02:55.711Z,63.20
2018-09-27T15:05:24.976Z,63.35
2018-09-27T15:07:53.579Z,63.30
2018-09-27T15:10:22.333Z,62.26
2018-09-27T15:12:50.977Z,61.94
2018-09-27T15:15:20.092Z,61.55
2018-09-27T15:17:48.924Z,62.56
2018-09-27T15:20:17.500Z,63.31
2018-09-27T15:22:46.188Z,62.65
2018-09-27T15:25:14.726Z,62.91
2018-09-27T15:27:43.283Z,62.86
2018-09-27T15:30:11.958Z,64.76
2018-09-27T15:32:40.731Z,63.63
2018-09-27T15:35:09.284Z,64.17
2018-09-27T15:37:37.920Z,64.51
2018-09-27T15:40:06.626Z,64.33
2018-09-27T15:42:36.348Z,64.37
2018-09-27T15:45:05.983Z,64.75
2018-09-27T15:47:34.789Z,63.75
2018-09-27T15:50:03.478Z,63.80
2018-09-27T15:52:32.025Z,63.87
2018-09-27T15:55:01.758Z,65.16
2018-09-27T15:57:30.549Z,65.30
2018-09-27T15:59:59.377Z,65.92
2018-09-27T16:02:28.065Z,66.33
2018-09-27T16:04:56.704Z,66.56
2018-09-27T16:07:26.490Z,67.14
2018-09-27T16:09:55.268Z,68.14
2018-09-27T16:12:24.008Z,67.92
2018-09-27T16:14:52.801Z,68.54
2018-09-27T16:17:22.460Z,68.73
2018-09-27T16:19:51.200Z,68.99
2018-09-27T16:22:19.890Z,69.13
2018-09-27T16:24:48.853Z,69.39
2018-09-27T16:27:18.713Z,69.34
2018-09-27T16:29:47.397Z,70.68
2018-09-27T16:32:16.152Z,70.18
2018-09-27T16:34:44.656Z,70.64
2018-09-27T16:37:13.253Z,70.94
2018-09-27T16:39:42.136Z,71.11
2018-09-27T16:42:11.267Z,71.83
2018-09-27T16:44:40.042Z,72.07
2018-09-27T16:47:08.711Z,72.63
2018-09-27T16:49:37.258Z,72.64
2018-09-27T16:52:05.840Z,72.96
2018-09-27T16:54:34.669Z,74.09
2018-09-27T16:57:04.948Z,74.38
2018-09-27T16:59:33.601Z,74.60
2018-09-27T17:02:02.413Z,74.83
2018-09-27T17:04:30.996Z,74.81
2018-09-27T17:06:59.608Z,75.73
2018-09-27T17:09:28.486Z,75.90
2018-09-27T17:11:57.063Z,76.66
2018-09-27T17:14:26.685Z,77.28
2018-09-27T17:16:55.380Z,77.53
2018-09-27T17:19:23.949Z,77.72
2018-09-27T17:21:52.444Z,78.36
2018-09-27T17:24:21.208Z,78.43
2018-09-27T17:26:50.692Z,78.50
2018-09-27T17:29:19.340Z,78.32
2018-09-27T17:31:48.073Z,78.46
2018-09-27T17:34:16.607Z,79.07
2018-09-27T17:36:45.320Z,79.69
2018-09-27T17:39:14.179Z,80.13
2018-09-27T17:41:42.875Z,80.53
2018-09-27T17:44:11.853Z,80.47
2018-09-27T17:46:41.409Z,80.63
2018-09-27T17:49:11.014Z,80.77
2018-09-27T17:51:40.024Z,80.92
2018-09-27T17:54:08.864Z,81.55
2018-09-27T17:56:37.697Z,81.50
2018-09-27T17:59:07.074Z,81.21
2018-09-27T18:01:35.747Z,80.95
2018-09-27T18:04:04.364Z,81.04
2018-09-27T18:06:32.972Z,81.52
2018-09-27T18:09:01.726Z,81.31
2018-09-27T18:11:30.450Z,81.18
2018-09-27T18:13:58.962Z,81.33
2018-09-27T18:16:27.631Z,81.27
2018-09-27T18:18:56.488Z,81.04
2018-09-27T18:21:25.049Z,81.11
2018-09-27T18:23:54.807Z,81.00
2018-09-27T18:26:23.498Z,80.84
2018-09-27T18:28:51.963Z,80.54
2018-09-27T18:31:21.077Z,80.19
2018-09-27T18:33:49.617Z,80.47
2018-09-27T18:36:19.384Z,80.09
2018-09-27T18:38:48.168Z,80.68
2018-09-27T18:41:16.686Z,80.48
2018-09-27T18:43:45.285Z,81.27
2018-09-27T18:46:14.029Z,81.02
2018-09-27T18:48:42.531Z,80.56
2018-09-27T18:51:11.144Z,80.59
2018-09-27T18:53:39.792Z,80.63
2018-09-27T18:56:08.438Z,80.49
2018-09-27T18:58:38.071Z,80.71
2018-09-27T19:01:06.960Z,80.93
2018-09-27T19:03:35.576Z,80.71
2018-09-27T19:06:04.164Z,81.04
2018-09-27T19:08:32.801Z,80.86
2018-09-27T19:11:01.519Z,81.20
2018-09-27T19:13:30.940Z,81.16
2018-09-27T19:15:59.746Z,81.07
2018-09-27T19:18:28.352Z,81.21
2018-09-27T19:20:56.968Z,80.78
2018-09-27T19:23:25.921Z,80.99
2018-09-27T19:25:55.328Z,80.37
2018-09-27T19:28:23.909Z,80.56
2018-09-27T19:30:52.488Z,80.83
2018-09-27T19:33:21.291Z,80.55
2018-09-27T19:35:49.821Z,80.55
2018-09-27T19:38:18.599Z,80.75
2018-09-27T19:40:47.173Z,80.41
2018-09-27T19:43:15.686Z,80.61
2018-09-27T19:45:44.347Z,80.78
2018-09-27T19:48:13.868Z,80.72
2018-09-27T19:50:42.756Z,81.19
2018-09-27T19:53:11.432Z,80.46
2018-09-27T19:55:40.013Z,80.98
2018-09-27T19:58:08.812Z,80.58
2018-09-27T20:00:37.704Z,80.63
2018-09-27T20:03:07.141Z,80.68
2018-09-27T20:05:35.898Z,81.06
2018-09-27T20:08:04.697Z,80.96
2018-09-27T20:10:33.596Z,81.11
2018-09-27T20:13:02.440Z,81.54
2018-09-27T20:15:31.384Z,81.88
2018-09-27T20:18:00.050Z,81.75
2018-09-27T20:20:28.556Z,81.85
2018-09-27T20:22:57.188Z,81.67
2018-09-27T20:25:25.740Z,81.29
2018-09-27T20:27:54.390Z,81.57
2018-09-27T20:30:23.124Z,81.29
2018-09-27T20:32:51.745Z,81.30
2018-09-27T20:35:21.204Z,81.17
2018-09-27T20:37:49.911Z,81.27
2018-09-27T20:40:18.701Z,81.60
2018-09-27T20:42:47.480Z,81.73
2018-09-27T20:45:16.148Z,81.56
2018-09-27T20:47:44.765Z,81.63
2018-09-27T20:50:14.397Z,81.50
2018-09-27T20:52:43.076Z,81.98
2018-09-27T20:55:11.928Z,82.14
2018-09-27T20:57:40.501Z,82.21
2018-09-27T21:00:10.164Z,82.27
2018-09-27T21:02:38.642Z,82.57
2018-09-27T21:05:07.581Z,82.58
2018-09-27T21:07:36.378Z,82.31
2018-09-27T21:10:05.169Z,83.09
2018-09-27T21:12:33.940Z,83.48
2018-09-27T21:15:02.812Z,83.13
2018-09-27T21:17:34.748Z,83.41
2018-09-27T21:20:03.456Z,84.01
2018-09-27T21:22:32.118Z,84.18
2018-09-27T21:25:00.728Z,84.45
2018-09-27T21:27:29.550Z,84.67
2018-09-27T21:29:57.998Z,84.98
2018-09-27T21:32:26.495Z,85.36
2018-09-27T21:34:55.221Z,85.88
2018-09-27T21:37:23.667Z,86.40
2018-09-27T21:39:52.161Z,86.54
2018-09-27T21:42:20.764Z,86.44
2018-09-27T21:44:49.241Z,86.98
2018-09-27T21:47:17.772Z,87.07
2018-09-27T21:49:46.483Z,87.02
2018-09-27T21:52:15.096Z,87.23
2018-09-27T21:54:43.739Z,87.33
2018-09-27T21:57:12.635Z,87.49
2018-09-27T21:59:41.226Z,87.23
2018-09-27T22:02:09.743Z,87.66
2018-09-27T22:04:38.355Z,87.82
2018-09-27T22:07:07.048Z,88.08
2018-09-27T22:09:35.526Z,87.69
2018-09-27T22:12:04.229Z,89.13
2018-09-27T22:14:33.008Z,89.18
2018-09-27T22:17:01.550Z,89.66
2018-09-27T22:19:30.345Z,90.30
2018-09-27T22:21:58.873Z,90.45
2018-09-27T22:24:27.565Z,91.14
2018-09-27T22:26:56.295Z,91.37
2018-09-27T22:29:24.896Z,92.04
2018-09-27T22:31:53.425Z,92.28
2018-09-27T22:34:22.145Z,92.73
2018-09-27T22:36:50.756Z,92.88
2018-09-27T22:39:19.364Z,93.11
2018-09-27T22:41:48.029Z,92.78
2018-09-27T22:44:16.664Z,93.08
2018-09-27T22:46:45.216Z,92.90
2018-09-27T22:49:14.281Z,92.62
2018-09-27T22:51:42.787Z,92.90
2018-09-27T22:54:11.412Z,92.93
2018-09-27T22:56:40.029Z,92.98
2018-09-27T22:59:08.563Z,93.06
2018-09-27T23:01:37.168Z,93.31
2018-09-27T23:04:05.809Z,93.55
2018-09-27T23:06:34.327Z,93.36
2018-09-27T23:09:02.896Z,93.33
2018-09-27T23:11:32.706Z,93.67
2018-09-27T23:14:02.456Z,93.78
2018-09-27T23:16:31.308Z,93.92
2018-09-27T23:18:59.999Z,94.17
2018-09-27T23:21:28.863Z,94.52
2018-09-27T23:23:57.448Z,94.90
2018-09-27T23:26:26.472Z,95.40
2018-09-27T23:28:55.004Z,94.99
2018-09-27T23:31:23.595Z,95.11
2018-09-27T23:33:52.247Z,94.73
2018-09-27T23:36:21.236Z,95.00
2018-09-27T23:38:50.796Z,95.17
2018-09-27T23:41:19.571Z,95.18
2018-09-27T23:43:48.188Z,95.26
2018-09-27T23:46:16.736Z,94.97
2018-09-27T23:48:46.336Z,95.32
2018-09-27T23:51:14.892Z,94.16
2018-09-27T23:53:44.311Z,94.62
2018-09-27T23:56:13.014Z,94.46
2018-09-27T23:58:42.644Z,95.63
